Vakhtang Janelidze

Jefe de ojeadores - Zugdidi
23 Abr 2028
Domingo
Continuar

Personalidad

Adaptabilidad (2) Ambición (4) Controversia (4) Lealtad (10) Presión (4) Profesionalismo (9) Deportividad (17) Temperamento (18)

Perfil

Estilo de dirección Democrático
Licencia Nacional A
Determinación 8
Gestión de personas 1
Motivación 4
Disciplina 6
Satisfacción laboral
100%
Fatiga
0%
Cargo Jefe de ojeadores
Salario 40.8K p/s
Contrato 14.03.2030

Rendimiento

Comportamiento Bueno
Efectividad del entrenamiento
24%
Desarrollo de jugadores
5%
Prevención de lesiones
25%
Implementación táctica
20%

Eventos recientes

Asistió a una reunión de captación ahora
Asistió a una reunión de captación 7d atrás
Asistió a una reunión de captación 7d atrás
Asistió a una reunión de captación 7d atrás
Asistió a una reunión de captación 14d atrás
Asistió a una reunión de captación 14d atrás
Asistió a una reunión de captación 14d atrás
Asistió a una reunión de captación 21d atrás

Actualmente siguiendo

106
Jugador Club Estado Habilidad Confianza Observado Última observación Último voto
Mirian Zoidze Dinamo Batumi Activo 79 / 68 41% 1 24.01.2028 -
Santiago Rodríguez Gimnasia y Esgrima Activo 100 / 116 40% 1 31.12.2027 Más información
Amar Yasser Chikhura Activo 89 / 82 40% 1 31.12.2027 -
Daniil Arsentjev Orel Activo 54 / 76 40% 1 01.06.2027 -
Giuseppe D'Agostino Giugliano Activo 96 / 90 40% 1 31.05.2027 -
Ekain Orobengoa Real Sociedad Activo 115 / 94 40% 1 31.05.2027 -
Nika Dumbadze Dinamo Batumi Activo 87 / 78 37% 1 25.01.2027 -
Davit Volkovi Zira Activo 102 / 115 40% 2 01.01.2027 -
Paolo Yrizar Chernomorets Activo 117 / 83 40% 1 01.01.2027 -
Ruslan Apekov Torpedo Moscow Activo 97 / 91 40% 1 30.12.2026 -
Ayanda Vete Strogino Activo 75 / 60 40% 1 30.12.2026 -
Daniil Agureev Amkar Activo 99 / 90 40% 2 26.12.2026 -
Leo Goglichidze Rodina Activo 135 / 104 40% 2 25.12.2026 -
Gilson Costa Mosta Activo 111 / 85 40% 1 25.12.2026 -
Magomed Nasibov Pobeda Activo 98 / 82 40% 3 23.12.2026 -
Jonathan Okoronkwo Torpedo Moscow Activo 117 / 87 40% 4 21.12.2026 Observar
Giorgi Papunashvili Zira Activo 129 / 108 40% 1 16.12.2026 -
Steven Alfred Torpedo-BelAZ Activo 103 / 108 40% 1 13.12.2026 -
Robert Murić Floriana Activo 122 / 115 40% 1 13.12.2026 -
Aleksej Golijanin Sokol Activo 101 / 86 40% 2 11.12.2026 -
Đorđe Pantelić Spartak Kostroma Activo 120 / 96 40% 1 11.12.2026 -
Vitaly Shitov Tyumen Activo 114 / 109 40% 1 09.12.2026 -
Javohir Esonqulov Merani Activo 90 / 87 40% 1 05.12.2026 -
Nikolay Maximov Krylya Sovetov Activo 55 / 73 40% 1 03.12.2026 -
Vladislav Yakovlev Volga Activo 93 / 80 40% 1 02.12.2026 -
Miguel Merentiel Köln Activo 132 / 137 40% 1 01.12.2026 -
Luís Mota Zabbar St. Patrick Activo 94 / 82 40% 3 30.11.2026 -
Louis Appéré Cambridge United Activo 102 / 91 40% 1 30.11.2026 -
Job Ochieng Real Sociedad Activo 98 / 122 40% 1 29.11.2026 -
Alexey Kashtanov Torpedo Moscow Activo 122 / 116 40% 1 29.11.2026 -
Kirill Bogdanets Volna Activo 83 / 86 40% 1 28.11.2026 -
Franklin Sasere Birkirkara Activo 75 / 87 40% 2 27.11.2026 -
Vladislav Morozov Volgar Activo 104 / 92 40% 2 25.11.2026 -
Alexandre Jesus Orenburg Activo 128 / 95 40% 1 24.11.2026 -
Jere Vrcić Birkirkara Activo 96 / 103 40% 1 24.11.2026 -
Maxim Lauk Dinamo Kirov Activo 96 / 81 40% 1 23.11.2026 -
Shawn McCoulsky Harrogate Town Activo 88 / 82 40% 1 23.11.2026 -
Romelle Donovan Brentford Activo 110 / 119 40% 1 23.11.2026 -
Tom Pearce Chesterfield Activo 97 / 122 40% 1 23.11.2026 -
Ayom Majok Zabbar St. Patrick Activo 79 / 92 40% 1 20.11.2026 -
Shota Shekiladze Dila Activo 122 / 118 40% 1 18.11.2026 -
Kekuta Manneh Samtredia Activo 106 / 82 40% 1 18.11.2026 -
Isaac Matondo Koper Activo 130 / 109 40% 1 18.11.2026 -
Santino Robles Zvezda Activo 58 / 83 40% 1 15.11.2026 -
Daniel Valdelamar Yenisey Activo 96 / 92 40% 1 15.11.2026 -
Mevran Ablak Angusht Activo 53 / 81 40% 1 13.11.2026 -
David Ozoh Derby County Activo 129 / 115 40% 1 12.11.2026 -
Jacobo Alcalde SKA Khabarovsk Activo 77 / 105 40% 1 10.11.2026 -
Carlos Zepeda Zvezda Activo 88 / 87 40% 1 10.11.2026 -
Jaze Kabia Grimsby Town Activo 101 / 93 40% 2 08.11.2026 -
Mason Bennett Harrogate Town Activo 77 / 84 40% 2 06.11.2026 -
Sam Nombe Milton Keynes Dons Activo 109 / 114 40% 1 06.11.2026 -
Víctor Guzmán Sporting CP Activo 80 / 113 40% 1 05.11.2026 -
Fərid Nəbiyev Kapaz Activo 108 / 88 40% 1 05.11.2026 -
Hakeeb Adelakun Doncaster Rovers Activo 80 / 108 40% 1 03.11.2026 -
Akin Odimayo Crawley Town Activo 83 / 84 40% 1 02.11.2026 -
Junior Brítez Saburtalo Activo 111 / 112 40% 1 02.11.2026 -
Said Aliev Rotor Activo 85 / 114 40% 1 01.11.2026 -
Charlie Whitaker Tranmere Rovers Activo 91 / 92 40% 1 30.10.2026 -
Israel Emmanuel Hamrun Spartans Activo 95 / 72 40% 2 27.10.2026 -
Andrey Domotsev Mashuk Activo 107 / 72 40% 1 27.10.2026 -
Dato Mchedlidze Tskhinvali Activo 102 / 91 40% 4 26.10.2026 -
Aymen Boutoutaou FCSB Activo 121 / 102 40% 1 26.10.2026 -
Lewis Richards Crawley Town Activo 116 / 88 40% 1 26.10.2026 -
Alessio Curci Kapaz Activo 90 / 89 40% 1 25.10.2026 -
Alexandr Olenev Nart Activo 61 / 95 40% 1 24.10.2026 -
Damir Céter Hamrun Spartans Activo 82 / 100 40% 2 23.10.2026 -
Igor Bugaenko Orel Activo 71 / 61 40% 1 23.10.2026 -
Evgeny Voronin Volga Activo 80 / 74 40% 1 20.10.2026 -
Anzor Khutov Mashuk Activo 87 / 85 40% 1 20.10.2026 -
Tornike Mikautadze Tskhinvali Activo 105 / 91 40% 1 17.10.2026 -
Denis Rubanov Dinamo Stavropol Activo 83 / 77 40% 1 16.10.2026 -
Alexey Antilevskiy Slavia Mozyr Activo 110 / 101 40% 1 16.10.2026 -
Tiago Almeida Sumgayit Activo 128 / 124 40% 1 15.10.2026 -
Aaron Leya Iseka OFI Activo 95 / 102 40% 1 15.10.2026 -
Kamran Aliev SKA Khabarovsk Activo 108 / 109 40% 1 11.10.2026 -
Paul Glatzel Swindon Town Activo 75 / 109 40% 1 11.10.2026 -
Fabián Ahumada Samtredia Activo 106 / 81 40% 1 08.10.2026 -
Ignacio Della Vedova Sapovnela Activo 77 / 63 40% 1 06.10.2026 -
Rüstəm Əhmədzadə Sumgayit Activo 118 / 109 40% 1 06.10.2026 -
Paulo Vitor Dinamo Batumi Activo 118 / 120 40% 1 06.10.2026 -
Ousmane Diawara Altach Activo 104 / 116 40% 1 03.10.2026 -
Marcos Cuenca Zaragoza Activo 118 / 100 40% 1 01.10.2026 -
Eric Barrios Samtredia Activo 83 / 95 40% 1 01.10.2026 -
Imran Oulad Omar Dinamo Batumi Activo 122 / 111 40% 1 29.09.2026 -
Vladimer Mamuchashvili Torpedo Kutaisi Activo 123 / 113 40% 1 29.09.2026 -
Davit Jikia Kolkheti Activo 90 / 93 40% 2 27.09.2026 -
Sfundo Shezi Sapovnela Activo 93 / 84 40% 1 27.09.2026 -
Ángel Román Bautista Kolkheti Activo 88 / 81 40% 1 24.09.2026 -
Nohan Kenneh Tranmere Rovers Activo 109 / 101 40% 1 24.09.2026 -
Elías Peralta Lokomotivi Activo 81 / 104 40% 1 24.09.2026 -
Nahuel de Armas Fenix Activo 81 / 94 40% 1 23.09.2026 -
Gonçalo Gregório Noah Activo 123 / 107 40% 1 22.09.2026 -
Evgeniy Shevchenko Slavia Mozyr Activo 86 / 84 40% 1 20.09.2026 -
Jonathan Farías Torpedo Kutaisi Activo 112 / 93 40% 1 18.09.2026 -
Felix Platte Köln Activo 117 / 102 40% 1 15.09.2026 -
Julen Cordero Samtredia Activo 92 / 87 40% 1 15.09.2026 -
Teddy Teuma Sliema Wanderers Activo 147 / 144 40% 1 15.09.2026 -
Zak Sturge Millwall Activo 103 / 118 40% 1 15.09.2026 -
Kyle Joseph Middlesbrough Activo 122 / 106 40% 1 14.09.2026 -
Jaba Kakabadze Tskhinvali Activo 89 / 83 40% 1 14.09.2026 -
Macaulay Langstaff Millwall Activo 136 / 102 40% 1 11.09.2026 -
Théo Berdayes Sion Activo 95 / 108 40% 1 07.09.2026 -
Khvicha Chakvetadze Activo 67 / 71 37% 1 31.08.2026 -
Diamanka Senghor Mosta Activo 107 / 82 40% 1 18.08.2026 -
Thiago Perugini San Lorenzo Activo 117 / 93 40% 1 18.08.2026 -